createdAt,value
2022-10-21T00:00:18.766Z,101184.08
2022-10-21T00:03:05.705Z,101180.88
2022-10-21T00:05:32.561Z,101179.59
2022-10-21T00:07:59.145Z,101181.68
2022-10-21T00:10:25.966Z,101173.90
2022-10-21T00:12:53.043Z,101171.55
2022-10-21T00:15:19.637Z,101161.98
2022-10-21T00:17:46.539Z,101159.91
2022-10-21T00:20:13.437Z,101161.25
2022-10-21T00:22:40.810Z,101160.20
2022-10-21T00:25:08.564Z,101159.42
2022-10-21T00:27:36.028Z,101157.30
2022-10-21T00:30:06.090Z,101151.36
2022-10-21T00:32:33.227Z,101150.30
2022-10-21T00:34:59.969Z,101144.83
2022-10-21T00:37:30.377Z,101141.50
2022-10-21T00:39:57.618Z,101144.98
2022-10-21T00:42:33.290Z,101144.17
2022-10-21T00:45:05.940Z,101142.48
2022-10-21T00:47:51.561Z,101144.31
2022-10-21T00:50:56.622Z,101137.15
2022-10-21T00:53:24.568Z,101137.68
2022-10-21T00:55:59.709Z,101136.55
2022-10-21T00:58:36.938Z,101138.42
2022-10-21T01:01:06.798Z,101134.70
2022-10-21T01:03:35.553Z,101133.20
2022-10-21T01:06:07.198Z,101133.58
2022-10-21T01:08:34.787Z,101136.02
2022-10-21T01:11:02.394Z,101124.49
2022-10-21T01:13:39.916Z,101122.55
2022-10-21T01:16:28.362Z,101123.65
2022-10-21T01:19:35.371Z,101123.41
2022-10-21T01:22:22.410Z,101129.48
2022-10-21T01:24:59.880Z,101119.21
2022-10-21T01:27:47.238Z,101123.16
2022-10-21T01:30:16.589Z,101127.77
2022-10-21T01:33:16.677Z,101124.63
2022-10-21T01:36:00.258Z,101123.56
2022-10-21T01:38:42.074Z,101120.85
2022-10-21T01:41:38.836Z,101116.05
2022-10-21T01:44:26.878Z,101125.93
2022-10-21T01:47:08.690Z,101121.55
2022-10-21T01:49:44.870Z,101118.16
2022-10-21T01:52:14.738Z,101116.77
2022-10-21T01:54:47.059Z,101115.27
2022-10-21T01:57:18.255Z,101106.66
2022-10-21T01:59:46.192Z,101098.78
2022-10-21T02:02:17.275Z,101093.20
2022-10-21T02:04:44.953Z,101084.48
2022-10-21T02:07:11.607Z,101080.52
2022-10-21T02:09:38.215Z,101080.33
2022-10-21T02:12:07.309Z,101078.99
2022-10-21T02:14:40.875Z,101074.59
2022-10-21T02:17:13.290Z,101072.09
2022-10-21T02:19:40.551Z,101070.93
2022-10-21T02:22:11.612Z,101065.92
2022-10-21T02:24:47.702Z,101068.73
2022-10-21T02:27:14.315Z,101062.54
2022-10-21T02:29:43.414Z,101057.01
2022-10-21T02:32:32.857Z,101051.30
2022-10-21T02:35:06.023Z,101043.90
2022-10-21T02:37:45.364Z,101043.65
2022-10-21T02:40:18.538Z,101043.91
2022-10-21T02:42:54.049Z,101034.63
2022-10-21T02:45:21.517Z,101030.70
2022-10-21T02:47:49.235Z,101021.23
2022-10-21T02:50:16.661Z,101011.44
2022-10-21T02:52:43.344Z,101009.66
2022-10-21T02:55:09.940Z,101005.41
2022-10-21T02:57:36.921Z,101001.77
2022-10-21T03:00:06.165Z,101003.45
2022-10-21T03:02:33.074Z,101012.77
2022-10-21T03:04:59.906Z,101017.82
2022-10-21T03:07:26.460Z,101012.82
2022-10-21T03:09:53.118Z,101004.05
2022-10-21T03:12:19.754Z,100994.95
2022-10-21T03:14:46.210Z,100989.89
2022-10-21T03:17:13.608Z,101003.27
2022-10-21T03:19:40.162Z,101001.09
2022-10-21T03:22:06.877Z,100996.43
2022-10-21T03:24:33.594Z,100992.15
2022-10-21T03:27:00.265Z,100978.70
2022-10-21T03:29:26.755Z,100977.34
2022-10-21T03:31:53.475Z,100977.09
2022-10-21T03:34:20.101Z,100976.30
2022-10-21T03:36:46.904Z,100977.95
2022-10-21T03:39:14.392Z,100970.14
2022-10-21T03:41:40.995Z,100964.67
2022-10-21T03:44:07.889Z,100963.38
2022-10-21T03:46:34.450Z,100958.80
2022-10-21T03:49:04.910Z,100950.48
2022-10-21T03:51:34.240Z,100944.98
2022-10-21T03:54:01.073Z,100945.59
2022-10-21T03:56:28.196Z,100943.14
2022-10-21T03:58:58.545Z,100945.52
2022-10-21T04:01:26.036Z,100946.29
2022-10-21T04:03:53.195Z,100945.45
2022-10-21T04:06:20.433Z,100945.17
2022-10-21T04:08:47.605Z,100947.48
2022-10-21T04:11:14.314Z,100945.48
2022-10-21T04:13:40.993Z,100944.04
2022-10-21T04:16:14.755Z,100944.16
2022-10-21T04:18:42.138Z,100947.62
2022-10-21T04:21:08.997Z,100940.05
2022-10-21T04:23:36.520Z,100931.16
2022-10-21T04:26:04.482Z,100933.71
2022-10-21T04:28:30.974Z,100939.36
2022-10-21T04:30:57.545Z,100936.91
2022-10-21T04:33:24.318Z,100933.94
2022-10-21T04:35:53.691Z,100933.25
2022-10-21T04:38:22.024Z,100928.92
2022-10-21T04:40:59.675Z,100913.02
2022-10-21T04:43:26.937Z,100908.98
2022-10-21T04:45:54.443Z,100908.48
2022-10-21T04:48:21.771Z,100913.48
2022-10-21T04:50:50.206Z,100907.67
2022-10-21T04:53:17.215Z,100902.93
2022-10-21T04:55:44.291Z,100899.05
2022-10-21T04:58:11.003Z,100900.98
2022-10-21T05:00:37.612Z,100908.41
2022-10-21T05:03:25.457Z,100905.27
2022-10-21T05:05:52.655Z,100898.83
2022-10-21T05:08:20.717Z,100894.11
2022-10-21T05:10:48.090Z,100892.36
2022-10-21T05:13:15.244Z,100892.63
2022-10-21T05:15:41.868Z,100893.29
2022-10-21T05:18:11.336Z,100895.59
2022-10-21T05:20:37.903Z,100890.20
2022-10-21T05:23:04.405Z,100887.01
2022-10-21T05:25:34.148Z,100887.78
2022-10-21T05:28:01.329Z,100879.29
2022-10-21T05:30:27.852Z,100868.02
2022-10-21T05:32:54.514Z,100852.91
2022-10-21T05:35:21.105Z,100842.40
2022-10-21T05:37:47.680Z,100845.98
2022-10-21T05:40:14.237Z,100842.84
2022-10-21T05:42:41.212Z,100841.63
2022-10-21T05:45:08.893Z,100837.40
2022-10-21T05:47:35.369Z,100840.58
2022-10-21T05:50:02.135Z,100844.77
2022-10-21T05:52:28.936Z,100844.62
2022-10-21T05:54:55.879Z,100840.57
2022-10-21T05:57:22.730Z,100844.36
2022-10-21T05:59:49.287Z,100839.11
2022-10-21T06:02:16.209Z,100839.34
2022-10-21T06:04:43.016Z,100839.30
2022-10-21T06:07:10.068Z,100841.80
2022-10-21T06:09:37.498Z,100844.61
2022-10-21T06:12:04.220Z,100848.55
2022-10-21T06:14:31.030Z,100851.19
2022-10-21T06:16:57.755Z,100853.98
2022-10-21T06:19:24.612Z,100856.73
2022-10-21T06:21:51.230Z,100853.48
2022-10-21T06:24:17.835Z,100853.85
2022-10-21T06:26:44.556Z,100856.23
2022-10-21T06:29:15.437Z,100856.85
2022-10-21T06:31:44.879Z,100860.98
2022-10-21T06:34:11.724Z,100856.19
2022-10-21T06:36:38.440Z,100861.25
2022-10-21T06:39:07.114Z,100860.76
2022-10-21T06:41:34.087Z,100857.14
2022-10-21T06:44:01.184Z,100852.33
2022-10-21T06:46:27.748Z,100853.27
2022-10-21T06:48:54.357Z,100859.27
2022-10-21T06:51:23.474Z,100857.48
2022-10-21T06:53:58.691Z,100854.33
2022-10-21T06:56:27.065Z,100846.20
2022-10-21T06:58:57.625Z,100844.13
2022-10-21T07:01:34.458Z,100836.07
2022-10-21T07:04:03.961Z,100834.30
2022-10-21T07:06:30.768Z,100834.27
2022-10-21T07:08:58.846Z,100834.44
2022-10-21T07:11:28.363Z,100840.52
2022-10-21T07:13:55.774Z,100842.73
2022-10-21T07:16:24.163Z,100839.01
2022-10-21T07:18:52.799Z,100847.86
2022-10-21T07:21:23.114Z,100854.23
2022-10-21T07:23:52.515Z,100855.61
2022-10-21T07:26:21.035Z,100858.80
2022-10-21T07:28:48.628Z,100851.89
2022-10-21T07:31:17.475Z,100856.11
2022-10-21T07:33:44.452Z,100852.33
2022-10-21T07:36:14.675Z,100843.14
2022-10-21T07:38:46.043Z,100843.55
2022-10-21T07:41:18.998Z,100840.68
2022-10-21T07:43:47.066Z,100830.07
2022-10-21T07:46:14.530Z,100823.40
2022-10-21T07:48:41.169Z,100818.16
2022-10-21T07:51:11.739Z,100811.98
2022-10-21T07:53:45.372Z,100805.91
2022-10-21T07:56:16.175Z,100805.91
2022-10-21T07:58:45.827Z,100810.70
2022-10-21T08:01:13.949Z,100806.61
2022-10-21T08:03:40.810Z,100804.50
2022-10-21T08:06:10.575Z,100803.34
2022-10-21T08:08:38.711Z,100801.73
2022-10-21T08:11:08.993Z,100795.15
2022-10-21T08:13:40.951Z,100788.86
2022-10-21T08:16:07.943Z,100789.52
2022-10-21T08:18:34.571Z,100789.23
2022-10-21T08:21:04.648Z,100785.75
2022-10-21T08:23:31.567Z,100786.84
2022-10-21T08:26:01.039Z,100784.70
2022-10-21T08:28:33.179Z,100777.18
2022-10-21T08:31:08.730Z,100774.35
2022-10-21T08:33:36.509Z,100775.79
2022-10-21T08:36:08.745Z,100760.52
2022-10-21T08:38:35.908Z,100752.78
2022-10-21T08:41:17.919Z,100752.38
2022-10-21T08:43:44.625Z,100746.89
2022-10-21T08:46:16.915Z,100749.88
2022-10-21T08:48:56.049Z,100747.67
2022-10-21T08:51:28.399Z,100746.39
2022-10-21T08:54:00.535Z,100739.17
2022-10-21T08:56:30.153Z,100736.59
2022-10-21T08:58:57.195Z,100728.76
2022-10-21T09:01:26.588Z,100727.63
2022-10-21T09:04:16.445Z,100737.63
2022-10-21T09:07:11.744Z,100724.95
2022-10-21T09:10:09.094Z,100726.66
2022-10-21T09:12:51.915Z,100733.85
2022-10-21T09:15:30.596Z,100727.66
2022-10-21T09:18:36.583Z,100722.01
2022-10-21T09:21:27.670Z,100714.89
2022-10-21T09:23:57.218Z,100713.53
2022-10-21T09:26:35.514Z,100712.79
2022-10-21T09:29:13.070Z,100706.05
2022-10-21T09:31:39.735Z,100702.34
2022-10-21T09:34:32.977Z,100690.91
2022-10-21T09:37:03.151Z,100685.28
2022-10-21T09:39:38.337Z,100689.09
2022-10-21T09:42:11.499Z,100691.09
2022-10-21T09:44:45.793Z,100699.05
2022-10-21T09:47:21.480Z,100685.94
2022-10-21T09:50:13.528Z,100683.14
2022-10-21T09:52:46.689Z,100677.41
2022-10-21T09:55:15.072Z,100665.80
2022-10-21T09:57:53.917Z,100661.55
2022-10-21T10:00:21.109Z,100672.22
2022-10-21T10:02:48.745Z,100667.30
2022-10-21T10:05:48.905Z,100662.94
2022-10-21T10:08:40.493Z,100661.94
2022-10-21T10:11:10.085Z,100660.54
2022-10-21T10:13:43.690Z,100659.58
2022-10-21T10:16:22.500Z,100658.66
2022-10-21T10:18:52.252Z,100655.22
2022-10-21T10:21:21.431Z,100650.01
2022-10-21T10:23:49.418Z,100645.36
2022-10-21T10:26:41.940Z,100647.10
2022-10-21T10:29:14.494Z,100648.77
2022-10-21T10:31:50.975Z,100651.01
2022-10-21T10:34:22.655Z,100643.77
2022-10-21T10:36:58.501Z,100643.63
2022-10-21T10:39:31.496Z,100640.55
2022-10-21T10:41:58.626Z,100635.33
2022-10-21T10:44:39.075Z,100632.40
2022-10-21T10:47:08.699Z,100636.25
2022-10-21T10:49:39.166Z,100630.88
2022-10-21T10:52:11.509Z,100621.24
2022-10-21T10:54:40.285Z,100610.63
2022-10-21T10:57:18.190Z,100612.45
2022-10-21T10:59:51.832Z,100608.55
2022-10-21T11:02:35.046Z,100610.38
2022-10-21T11:05:10.849Z,100610.21
2022-10-21T11:07:37.606Z,100609.59
2022-10-21T11:10:13.244Z,100601.31
2022-10-21T11:12:39.762Z,100592.30
2022-10-21T11:15:12.923Z,100582.23
2022-10-21T11:17:43.697Z,100575.41
2022-10-21T11:20:27.559Z,100572.08
2022-10-21T11:23:32.515Z,100562.55
2022-10-21T11:26:15.808Z,100554.94
2022-10-21T11:29:14.536Z,100555.48
2022-10-21T11:32:19.743Z,100559.16
2022-10-21T11:35:04.972Z,100558.96
2022-10-21T11:37:46.915Z,100557.51
2022-10-21T11:40:30.374Z,100551.45
2022-10-21T11:43:11.589Z,100552.67
2022-10-21T11:46:00.460Z,100557.08
2022-10-21T11:48:32.050Z,100548.58
2022-10-21T11:51:25.987Z,100539.05
2022-10-21T11:54:29.927Z,100529.42
2022-10-21T11:56:59.391Z,100529.30
2022-10-21T11:59:37.965Z,100524.45
2022-10-21T12:02:25.324Z,100525.10
2022-10-21T12:05:19.465Z,100523.36
2022-10-21T12:07:58.078Z,100520.02
2022-10-21T12:10:36.957Z,100522.11
2022-10-21T12:13:27.628Z,100518.52
2022-10-21T12:16:05.735Z,100509.61
2022-10-21T12:18:37.031Z,100510.25
2022-10-21T12:21:03.845Z,100510.79
2022-10-21T12:23:31.265Z,100508.45
2022-10-21T12:26:14.728Z,100497.51
2022-10-21T12:29:03.077Z,100489.81
2022-10-21T12:32:03.650Z,100484.09
2022-10-21T12:34:31.403Z,100479.14
2022-10-21T12:36:58.303Z,100475.02
2022-10-21T12:39:34.304Z,100472.25
2022-10-21T12:42:27.835Z,100477.73
2022-10-21T12:44:54.816Z,100474.58
2022-10-21T12:47:45.016Z,100482.14
2022-10-21T12:50:17.615Z,100481.71
2022-10-21T12:52:49.639Z,100481.92
2022-10-21T12:55:22.834Z,100475.05
2022-10-21T12:58:02.357Z,100473.64
2022-10-21T13:00:29.619Z,100473.63
2022-10-21T13:03:02.292Z,100478.50
2022-10-21T13:05:38.174Z,100474.58
2022-10-21T13:08:22.285Z,100476.64
2022-10-21T13:11:04.365Z,100476.02
2022-10-21T13:13:41.614Z,100468.54
2022-10-21T13:16:20.361Z,100460.96
2022-10-21T13:18:51.900Z,100449.42
2022-10-21T13:21:28.858Z,100446.59
2022-10-21T13:24:15.259Z,100445.67
2022-10-21T13:26:55.583Z,100450.39
2022-10-21T13:29:27.795Z,100451.62
2022-10-21T13:32:20.734Z,100457.28
2022-10-21T13:34:50.652Z,100458.74
2022-10-21T13:37:35.447Z,100451.92
2022-10-21T13:40:07.278Z,100451.16
2022-10-21T13:42:41.274Z,100457.37
2022-10-21T13:45:32.682Z,100455.64
2022-10-21T13:48:20.564Z,100445.05
2022-10-21T13:50:49.338Z,100436.84
2022-10-21T13:53:37.576Z,100432.20
2022-10-21T13:56:07.625Z,100422.48
2022-10-21T13:58:39.087Z,100423.84
2022-10-21T14:01:39.105Z,100415.48
2022-10-21T14:04:14.969Z,100415.51
2022-10-21T14:07:04.486Z,100406.15
2022-10-21T14:09:40.181Z,100401.98
2022-10-21T14:12:17.244Z,100408.61
2022-10-21T14:14:44.172Z,100404.14
2022-10-21T14:17:23.731Z,100394.73
2022-10-21T14:20:15.650Z,100387.67
2022-10-21T14:22:49.661Z,100378.46
2022-10-21T14:25:18.305Z,100373.06
2022-10-21T14:27:47.203Z,100369.46
2022-10-21T14:30:23.308Z,100377.08
2022-10-21T14:32:51.558Z,100376.80
2022-10-21T14:35:18.332Z,100386.67
2022-10-21T14:37:46.327Z,100386.02
2022-10-21T14:40:41.054Z,100389.79
2022-10-21T14:43:32.554Z,100385.60
2022-10-21T14:45:59.477Z,100384.53
2022-10-21T14:48:30.855Z,100386.33
2022-10-21T14:51:00.881Z,100381.81
2022-10-21T14:53:37.161Z,100368.68
2022-10-21T14:56:06.448Z,100360.71
2022-10-21T14:58:37.663Z,100355.35
2022-10-21T15:01:17.758Z,100366.59
2022-10-21T15:03:47.652Z,100363.02
2022-10-21T15:06:16.177Z,100369.86
2022-10-21T15:09:07.440Z,100372.98
2022-10-21T15:11:38.400Z,100374.98
2022-10-21T15:14:14.511Z,100374.64
2022-10-21T15:16:59.532Z,100367.22
2022-10-21T15:19:43.590Z,100365.43
2022-10-21T15:22:33.472Z,100364.50
2022-10-21T15:25:08.680Z,100367.76
2022-10-21T15:27:42.421Z,100375.85
2022-10-21T15:30:12.444Z,100375.95
2022-10-21T15:32:39.235Z,100372.85
2022-10-21T15:35:13.327Z,100378.46
2022-10-21T15:37:40.597Z,100377.02
2022-10-21T15:40:08.785Z,100379.76
2022-10-21T15:42:35.770Z,100373.36
2022-10-21T15:45:02.641Z,100372.96
2022-10-21T15:47:29.450Z,100365.85
2022-10-21T15:49:56.238Z,100356.10
2022-10-21T15:52:22.968Z,100344.11
2022-10-21T15:54:49.915Z,100333.54
2022-10-21T15:57:21.561Z,100328.55
2022-10-21T15:59:48.899Z,100325.80
2022-10-21T16:02:22.103Z,100327.07
2022-10-21T16:04:52.456Z,100323.77
2022-10-21T16:07:34.005Z,100323.30
2022-10-21T16:10:03.088Z,100324.75
2022-10-21T16:12:30.590Z,100328.02
2022-10-21T16:14:57.175Z,100331.23
2022-10-21T16:17:28.044Z,100345.56
2022-10-21T16:19:54.920Z,100350.86
2022-10-21T16:22:22.156Z,100344.23
2022-10-21T16:24:49.038Z,100341.09
2022-10-21T16:27:26.582Z,100344.79
2022-10-21T16:29:58.244Z,100342.39
2022-10-21T16:32:24.853Z,100343.03
2022-10-21T16:34:51.515Z,100347.85
2022-10-21T16:37:25.119Z,100357.35
2022-10-21T16:39:52.432Z,100357.92
2022-10-21T16:42:19.114Z,100352.12
2022-10-21T16:44:46.343Z,100351.27
2022-10-21T16:47:18.908Z,100346.55
2022-10-21T16:49:47.888Z,100345.13
2022-10-21T16:52:15.900Z,100353.61
2022-10-21T16:54:43.419Z,100354.97
2022-10-21T16:57:12.184Z,100354.87
2022-10-21T16:59:38.839Z,100357.90
2022-10-21T17:02:15.093Z,100358.63
2022-10-21T17:04:43.190Z,100353.18
2022-10-21T17:07:10.905Z,100353.55
2022-10-21T17:09:37.586Z,100352.55
2022-10-21T17:12:04.828Z,100354.67
2022-10-21T17:14:31.590Z,100354.37
2022-10-21T17:16:58.297Z,100354.00
2022-10-21T17:19:24.986Z,100352.46
2022-10-21T17:21:51.635Z,100347.33
2022-10-21T17:24:18.286Z,100345.73
2022-10-21T17:26:45.370Z,100340.61
2022-10-21T17:29:12.549Z,100339.79
2022-10-21T17:31:42.245Z,100335.98
2022-10-21T17:34:24.055Z,100330.31
2022-10-21T17:36:50.675Z,100327.98
2022-10-21T17:39:17.257Z,100329.00
2022-10-21T17:41:43.846Z,100325.58
2022-10-21T17:44:14.014Z,100317.80
2022-10-21T17:46:40.686Z,100311.64
2022-10-21T17:49:08.829Z,100312.01
2022-10-21T17:51:35.545Z,100304.13
2022-10-21T17:54:02.215Z,100293.60
2022-10-21T17:56:28.870Z,100288.21
2022-10-21T17:59:00.745Z,100285.77
2022-10-21T18:01:27.486Z,100282.66
2022-10-21T18:03:54.210Z,100278.08
2022-10-21T18:06:20.944Z,100272.48
2022-10-21T18:08:47.994Z,100273.95
2022-10-21T18:11:17.394Z,100270.91
2022-10-21T18:13:44.849Z,100264.74
2022-10-21T18:16:14.654Z,100261.45
2022-10-21T18:21:20.858Z,100261.53
2022-10-21T18:23:50.481Z,100259.96
2022-10-21T18:26:26.555Z,100256.73
2022-10-21T18:28:59.602Z,100252.30
2022-10-21T18:31:29.446Z,100255.90
2022-10-21T18:33:57.686Z,100249.30
2022-10-21T18:36:27.336Z,100246.56
2022-10-21T18:38:54.241Z,100249.52
2022-10-21T18:41:21.645Z,100245.00
2022-10-21T18:43:51.018Z,100242.91
2022-10-21T18:46:18.979Z,100242.30
2022-10-21T18:48:46.160Z,100242.33
2022-10-21T18:51:15.408Z,100245.28
2022-10-21T18:53:42.826Z,100246.04
2022-10-21T18:56:15.239Z,100246.77
2022-10-21T18:58:43.447Z,100250.23
2022-10-21T19:01:11.335Z,100251.58
2022-10-21T19:03:38.604Z,100246.25
2022-10-21T19:06:38.428Z,100244.95
2022-10-21T19:09:25.860Z,100239.70
2022-10-21T19:11:53.315Z,100237.40
2022-10-21T19:14:19.936Z,100233.58
2022-10-21T19:16:48.438Z,100231.45
2022-10-21T19:19:16.763Z,100229.23
2022-10-21T19:21:43.561Z,100227.33
2022-10-21T19:24:10.431Z,100223.00
2022-10-21T19:26:39.949Z,100222.55
2022-10-21T19:29:13.920Z,100220.56
2022-10-21T19:31:41.529Z,100219.30
2022-10-21T19:34:12.664Z,100220.93
2022-10-21T19:36:39.491Z,100217.07
2022-10-21T19:39:06.701Z,100216.25
2022-10-21T19:41:33.622Z,100219.77
2022-10-21T19:44:00.431Z,100219.19
2022-10-21T19:46:29.874Z,100216.98
2022-10-21T19:48:57.588Z,100212.27
2022-10-21T19:51:25.461Z,100211.59
2022-10-21T19:53:53.402Z,100209.18
2022-10-21T19:56:25.535Z,100208.54
2022-10-21T19:58:55.018Z,100205.44
2022-10-21T20:01:25.161Z,100201.23
2022-10-21T20:03:54.720Z,100202.44
2022-10-21T20:06:27.132Z,100197.81
2022-10-21T20:08:56.359Z,100201.26
2022-10-21T20:11:24.517Z,100199.63
2022-10-21T20:13:51.899Z,100202.88
2022-10-21T20:16:27.919Z,100196.29
2022-10-21T20:18:55.841Z,100197.28
2022-10-21T20:21:23.987Z,100199.21
2022-10-21T20:23:53.834Z,100196.58
2022-10-21T20:26:20.625Z,100190.60
2022-10-21T20:28:47.522Z,100189.43
2022-10-21T20:31:15.134Z,100183.94
2022-10-21T20:33:47.322Z,100180.86
2022-10-21T20:36:18.740Z,100186.63
2022-10-21T20:38:47.025Z,100185.41
2022-10-21T20:41:18.577Z,100184.15
2022-10-21T20:43:49.552Z,100182.84
2022-10-21T20:46:17.776Z,100180.41
2022-10-21T20:48:47.786Z,100178.47
2022-10-21T20:51:24.334Z,100173.11
2022-10-21T20:53:53.915Z,100175.38
2022-10-21T20:56:21.543Z,100173.46
2022-10-21T20:58:48.517Z,100175.12
2022-10-21T21:01:21.728Z,100172.27
2022-10-21T21:03:50.299Z,100170.65
2022-10-21T21:06:20.568Z,100166.61
2022-10-21T21:08:58.398Z,100164.98
2022-10-21T21:11:46.409Z,100162.14
2022-10-21T21:14:13.566Z,100160.90
2022-10-21T21:16:40.333Z,100157.48
2022-10-21T21:19:08.315Z,100157.63
2022-10-21T21:21:36.565Z,100160.73
2022-10-21T21:24:03.993Z,100163.45
2022-10-21T21:26:34.265Z,100162.44
2022-10-21T21:29:18.196Z,100163.33
2022-10-21T21:31:45.246Z,100163.53
2022-10-21T21:34:14.500Z,100160.79
2022-10-21T21:36:43.275Z,100158.98
2022-10-21T21:39:11.019Z,100159.44
2022-10-21T21:41:37.815Z,100158.25
2022-10-21T21:44:05.386Z,100157.20
2022-10-21T21:46:32.169Z,100155.61
2022-10-21T21:49:05.169Z,100152.86
2022-10-21T21:51:35.685Z,100150.04
2022-10-21T21:54:04.723Z,100148.68
2022-10-21T21:56:31.352Z,100148.48
2022-10-21T21:58:58.355Z,100146.27
2022-10-21T22:01:27.176Z,100145.16
2022-10-21T22:03:54.611Z,100145.69
2022-10-21T22:08:51.870Z,100139.41
2022-10-21T22:11:22.613Z,100144.53
2022-10-21T22:13:49.683Z,100149.00
2022-10-21T22:16:17.196Z,100142.36
2022-10-21T22:18:43.980Z,100145.50
2022-10-21T22:21:14.327Z,100146.50
2022-10-21T22:23:41.688Z,100153.46
2022-10-21T22:26:10.618Z,100151.55
2022-10-21T22:28:37.416Z,100148.23
2022-10-21T22:31:06.995Z,100149.29
2022-10-21T22:33:34.119Z,100149.38
2022-10-21T22:36:01.739Z,100147.68
2022-10-21T22:38:30.892Z,100146.49
2022-10-21T22:41:00.545Z,100144.98
2022-10-21T22:43:28.294Z,100142.77
2022-10-21T22:46:05.418Z,100143.33
2022-10-21T22:48:42.399Z,100140.91
2022-10-21T22:51:09.114Z,100137.20
2022-10-21T22:53:36.270Z,100129.30
2022-10-21T22:56:03.294Z,100126.25
2022-10-21T22:58:30.412Z,100123.40
2022-10-21T23:00:57.282Z,100121.68
2022-10-21T23:03:24.609Z,100120.54
2022-10-21T23:05:51.188Z,100122.52
2022-10-21T23:08:18.865Z,100118.55
2022-10-21T23:10:48.618Z,100120.02
2022-10-21T23:13:16.152Z,100122.69
2022-10-21T23:15:43.765Z,100123.74
2022-10-21T23:18:10.713Z,100127.20
2022-10-21T23:20:37.333Z,100126.23
2022-10-21T23:23:04.645Z,100126.97
2022-10-21T23:25:31.695Z,100128.40
2022-10-21T23:27:58.428Z,100129.15
2022-10-21T23:30:25.196Z,100127.73
2022-10-21T23:32:51.871Z,100119.27
2022-10-21T23:35:19.606Z,100119.30
2022-10-21T23:37:46.516Z,100121.01
2022-10-21T23:40:13.322Z,100115.48
2022-10-21T23:42:42.729Z,100111.65
2022-10-21T23:45:10.725Z,100111.90
2022-10-21T23:47:39.186Z,100106.50
2022-10-21T23:50:07.954Z,100099.36
2022-10-21T23:52:35.140Z,100104.39
2022-10-21T23:55:01.752Z,100105.52
2022-10-21T23:57:28.535Z,100103.83
2022-10-21T23:59:55.437Z,100102.31
